Patuxent River Naval Air Station/Trapnell Field Aiport
KNHK : now visible

Airfield :











YOU CAN JOIN US ON...

 
LOGIN :

Register | Disclaimer

   EN    FR    IT 

 









Legend :    VFR   Marginal VFR   IFR   Intensive IFR   Very Intensive IFR
Visi :
Ceiling :
>= 8 km
>= 3000ft
5 to 8 km
1000 to 3000 ft
1500m to 5 km
500 to 1000 ft
800 to 1500m
200 to 500 ft
< 800m
< 200 ft
Symbols :   Thunderstorms  Fog  Heavy snow  Heavy precipitations  Wind > 20 kt






- Airport Elevation : 39 ft


KNHK - Patuxent River Naval Air Station/Trapnell Field Aiport

CURRENT METAR :
  • 030952Z AUTO 24009KT 10SM CLR 22/18 A2981 RMK AO2 CIG 110 RY24 SLP094 T02220178 $

EXPIRED METARs :
  • 030852Z AUTO 23011KT 10SM CLR 22/18 A2981 RMK AO2 CIG 110 RY24 SLP094 T02220178 56005 $
  • 030752Z AUTO 24010KT 10SM CLR 22/18 A2981 RMK AO2 CIG 110 RY24 SLP096 T02220178 $

TAF TAF KNHK
Valid from the 03 at 07:00 until the 04 at 07:00 UTC


0307/0407 23009KT 9999 SCT055 BKN250 QNH2978INS
BECMG 0310/0312 24012KT 9999 FEW050 SCT250 QNH2962INS
FM040000 26007KT 9999 SCT100 BKN250 QNH2971INS AUTOMATED SENSOR METWATCH 0307 TIL 0308 T21/0309Z T32/0321Z FN00230
KZDC FIR / North America



MET'MAP, your aeronautical weather chart ! - Copyright ORBIFLY December 2007 - Disclaimer

ORBIFLY MET'MAP TEAM :

Programming & Development : Alexandra Zaïnal
Concept & original design : Baudouin d'Aumeries
Assistance for programming : Marc-Olivier Méhu
Technical & hardware support : Manuel Goepfert

Contact : metmap@orbifly.com




SOURCES & CREDITS :

   NOAA       Earth
Advisory